Fédération internationale de Ski
Member Section
Print

OFFICIAL RESULTS

Crans Montana (SUI) 03.02.2011

FIS Junior World Ski Championships - Men's FIS Junior World Ski Championships OFFICIAL RESULTS

Race codex : 1428
Valid for FIS Points : YES
1 files available



Jury
TD FIS FOSSOUD GILLES FRA
Referee
Chief of Race
Technical Data
Start Altitude m.
Finish Altitude m.
Vertical Drop 0 m.
Course Length m.
Homologation Number
 
Show more info»

Competitors

Rank Bib FIS Code Name Year Nation Total Time Diff. FIS Points
 1  9  561216 KLINE Bostjan  1991  SLO   1:37.34     15.84
 2  12  53968 BERTHOLD Frederic  1991  AUT   1:37.38  +0.04  16.39
 3  10  54005 STRIEDINGER Otmar  1991  AUT   1:37.78  +0.44  21.85
 4  13  934551 MOFFAT Keith  1991  USA   1:38.16  +0.82  27.04
 5  2  202290 ACKERMANN Marvin  1991  GER   1:38.43  +1.09  30.73
 6  21  511847 MANI Nils  1992  SUI   1:38.53  +1.19  32.10
 7  25  422177 OLSEN Joern Lunn  1992  NOR   1:38.55  +1.21  32.37
 8  6  53980 KRIECHMAYR Vincent  1991  AUT   1:38.74  +1.40  34.97
 9  26  511981 WEBER Ralph  1993  SUI   1:38.75  +1.41  35.11
 10  14  54075 KARELLY Mario  1992  AUT   1:38.83  +1.49  36.20
 11  8  53981 KROELL Johannes  1991  AUT   1:38.95  +1.61  37.84
 12  3  194542 GIRAUD MOINE Valentin  1992  FRA   1:38.96  +1.62  37.97
 13  31  202525 SCHMID Manuel  1993  GER   1:39.24  +1.90  41.80
 14  1  103676 BROWN Philip  1991  CAN   1:39.25  +1.91  41.94
 15  4  6290350 RAVELLI Andrea  1992  ITA   1:39.30  +1.96  42.62
 16  36  103865 PHILP Trevor  1992  CAN   1:39.35  +2.01  43.30
 17  17  103762 WERRY Tyler  1991  CAN   1:39.38  +2.04  43.71
 18  15  934518 DANIELS Nick  1991  USA   1:39.42  +2.08  44.26
 19  24  481196 BYSTROV Andrey  1991  RUS   1:39.50  +2.16  45.35
 20  30  690161 BREAN Alessandro  1991  ITA   1:39.52  +2.18  45.63
 21  59  202535 DRESSEN Thomas  1993  GER   1:39.53  +2.19  45.76
 22  50  561255 CATER Martin  1992  SLO   1:39.65  +2.31  47.40
 23  49  422001 BRATH Joergen  1991  NOR   1:39.69  +2.35  47.95
 24  32  561217 KOSI Klemen  1991  SLO   1:39.74  +2.40  48.63
 25  16  422039 KYLLINGSTAD Christoffer  1991  NOR   1:39.76  +2.42  48.91
 25  11  202323 LINDEBNER Anton  1991  GER   1:39.76  +2.42  48.91
 27  28  103752 TROW Andy  1991  CAN   1:39.82  +2.48  49.73
 28  5  511896 MURISIER Justin  1992  SUI   1:39.84  +2.50  50.00
 29  40  511908 SCHMIDIGER Reto  1992  SUI   1:39.87  +2.53  50.41
 29  35  512014 NIEDERBERGER Bernhard  1993  SUI   1:39.87  +2.53  50.41
 31  20  103729 READ Erik  1991  CAN   1:39.88  +2.54  50.55
 32  23  6290151 BERETTA Carlo  1992  ITA   1:40.09  +2.75  53.41
 33  19  6530319 COCHRAN-SIEGLE Ryan  1992  USA   1:40.13  +2.79  53.96
 34  41  511753 ANTHAMATTEN Gabriel  1991  SUI   1:40.22  +2.88  55.19
 35  37  934502 ANKENY Michael  1991  USA   1:40.26  +2.92  55.74
 36  62  6530115 CHRISTIANSON Kieffer  1992  USA   1:40.37  +3.03  57.24
 37  42  180627 MALMSTROM Victor  1991  FIN   1:40.48  +3.14  58.74
 38  63  194262 BUFFET Robin  1991  FRA   1:40.51  +3.17  59.15
 38  29  180666 TORSTI Samu  1991  FIN   1:40.51  +3.17  59.15
 40  7  194495 FAIVRE Mathieu  1992  FRA   1:40.57  +3.23  59.97
 41  51  422139 KILDE Aleksander  1992  NOR   1:40.61  +3.27  60.52
 42  39  350087 KINDLE Nicola  1991  LIE   1:40.62  +3.28  60.66
 42  38  6290708 FRANZELIN Hubert  1993  ITA   1:40.62  +3.28  60.66
 44  22  934568 RUBIE Brennan  1991  USA   1:40.63  +3.29  60.79
 45  43  422134 BJERTNESS Endre  1992  NOR   1:40.88  +3.54  64.21
 46  57  194457 GALEOTTI Greg  1992  FRA   1:40.92  +3.58  64.76
 47  47  422082 SOLEVAAG Sebastian-Foss  1991  NOR   1:41.17  +3.83  68.17
 48  33  690571 ROMANO Francesco  1991  ITA   1:41.21  +3.87  68.72
 49  18  660021 DANILOCHKIN Yuri  1991  BLR   1:41.28  +3.94  69.67
 50  45  20324 OLIVERAS Marc  1991  AND   1:41.32  +3.98  70.22
 51  34  6290540 DE VETTORI Matteo  1993  ITA   1:41.41  +4.07  71.45
 52  44  202437 LUITZ Stefan  1992  GER   1:41.46  +4.12  72.13
 53  54  501557 PIETILAE HOLMNER Johan  1991  SWE   1:41.48  +4.14  72.41
 54  68  202469 RENZ Fabio  1992  GER   1:41.51  +4.17  72.82
 55  65  194686 FABRE Jonas  1993  FRA   1:41.88  +4.54  77.87
 56  74  561244 KRANJEC Zan  1992  SLO   1:41.96  +4.62  78.97
 57  66  380318 BRIGOVIC Sebastian  1992  CRO   1:41.97  +4.63  79.10
 58  61  20328 RUIZ ANTUNA Nil  1991  AND   1:41.99  +4.65  79.38
 59  71  481327 TRIKHICHEV Pavel  1992  RUS   1:42.26  +4.92  83.06
 60  55  20359 PALLAS NOMEN Artur  1993  AND   1:42.42  +5.08  85.25
 61  93  501814 OESTER Carl-johan  1992  SWE   1:42.87  +5.53  91.40
 62  69  400237 MEINERS Maarten  1992  NED   1:42.92  +5.58  92.08
 63  76  481322 ANDREEVSKIY Alexey  1992  RUS   1:42.95  +5.61  92.49
 64  73  501540 JANSSON Emil  1991  SWE   1:43.05  +5.71  93.86
 65  53  501804 MONSEN Sam  1992  SWE   1:43.31  +5.97  97.41
 66  100  430617 CHRAPEK Adam  1993  POL   1:43.43  +6.09  99.05
 67  98  410364 FEASEY Willis  1992  NZL   1:43.54  +6.20  100.55
 68  64  501736 HEDMAN Bjoern  1992  SWE   1:43.70  +6.36  102.74
 69  46  92570 GEORGIEV Svetoslav  1991  BUL   1:43.91  +6.57  105.61
 70  83  151024 KOTZMANN Adam  1993  CZE   1:43.98  +6.64  106.57
 71  52  370031 ALESSANDRIA Arnaud  1993  MON   1:44.21  +6.87  109.71
 72  97  40506 ROBERTSON Sam  1993  AUS   1:44.35  +7.01  111.62
 73  91  700879 ZAMPA Andreas  1993  SVK   1:44.45  +7.11  112.99
 74  67  60198 VAN DEN BROECKE Robin  1992  BEL   1:44.46  +7.12  113.12
 75  86  60207 FIERENS Thomas  1993  BEL   1:44.60  +7.26  115.04
 76  80  680054 GEDEVANISHVILI Dimitri  1993  GEO   1:44.78  +7.44  117.50
 77  78  170131 FAARUP Christoffer  1992  DEN   1:44.83  +7.49  118.18
 78  60  40553 CHEVALIER Luc Henri  1992  AUS   1:45.01  +7.67  120.64
 79  72  700868 FALAT Matej  1993  SVK   1:45.13  +7.79  122.28
 80  82  491501 ROCAMORA Pol  1991  ESP   1:45.17  +7.83  122.82
 81  77  430550 KLUSAK Jakub  1992  POL   1:45.31  +7.97  124.74
 82  84  60236 VAN DEN BROECKE Dries  1995  BEL   1:45.44  +8.10  126.51
 82  79  340248 ACHI Ghassan  1993  LIB   1:45.44  +8.10  126.51
 84  102  304242 NARITA Hideyuki  1993  JPN   1:45.90  +8.56  132.80
 85  92  491859 MATEU Miquel  1994  ESP   1:45.93  +8.59  133.21
 86  94  491853 DEL CAMPO Juan  1994  ESP   1:45.94  +8.60  133.35
 86  81  680053 GELASHVILI Jaba  1993  GEO   1:45.94  +8.60  133.35
 88  75  250292 HALLDORSSON Sigurgeir  1991  ISL   1:46.05  +8.71  134.85
 89  87  110269 CARVALLO Nicolas  1991  CHI   1:46.62  +9.28  142.64
 90  89  690694 KOVBASNYUK Ivan  1993  UKR   1:46.75  +9.41  144.41
 91  90  110324 VON APPEN Henrik  1994  CHI   1:47.46  +10.12  154.11
 92  103  304139 SHIN Masanori  1993  JPN   1:48.57  +11.23  169.28
 93  96  92639 PARLAPANOV Yani  1993  BUL   1:51.35  +14.01  207.26
Did not finish 1st run
   27  303758 SUGAI Ryo  1991  JPN       
Disqualified 1st run
   101  304099 MITSUI Kyohei  1993  JPN       
   95  40503 COULL Jackson  1993  AUS       
   85  430560 RZEPECKI Filip  1992  POL       
   58  561254 ZERAK Misel  1992  SLO       
   56  501529 GUNNARSSON Henrik  1991  SWE       
Did not start 1st run
   99  700843 KUTLIK Matej  1991  SVK       
   88  54031 LEITINGER Roland  1991  AUT       
   70  481428 NOVIKOV Vladislav  1993  RUS       
   48  550054 ZVEJNIEKS Kristaps  1992  LAT